Time;durP1;ratioP1;P1;durP2;ratioP2;P2;SDS_P1;SDS_P2;PMS_P1;PMS_P2;Temp;Humidity;BMP_temperature;BMP_pressure;BME280_temperature;BME280_humidity;BME280_pressure;Samples;Min_cycle;Max_cycle;Signal;HPM_P1;HPM_P2
2023/12/23 00:02:33;;;;;;;0.98;0.20;;;;;;;1.84;100.00;149129.81;13033307;22;20099;-77
2023/12/23 00:07:36;;;;;;;1.08;0.50;;;;;;;1.82;100.00;149124.72;13043934;22;20369;-78
2023/12/23 00:12:38;;;;;;;0.20;0.20;;;;;;;1.49;100.00;149043.91;13065919;22;20322;-78
2023/12/23 00:17:39;;;;;;;2.15;0.98;;;;;;;1.58;100.00;149065.72;13038694;22;20019;-78
2023/12/23 00:22:41;;;;;;;0.73;0.35;;;;;;;1.49;100.00;149043.91;13034771;22;20056;-78
2023/12/23 00:27:43;;;;;;;0.22;0.20;;;;;;;1.57;100.00;149061.88;13064242;22;20015;-78
2023/12/23 00:32:46;;;;;;;0.82;0.17;;;;;;;1.61;100.00;149072.13;13010880;22;20522;-78
2023/12/23 00:37:48;;;;;;;0.10;0.10;;;;;;;1.71;100.00;149097.75;13035309;22;20085;-77
2023/12/23 00:42:50;;;;;;;0.90;0.20;;;;;;;1.77;100.00;149113.13;13062247;22;20086;-78
2023/12/23 00:47:51;;;;;;;0.35;0.30;;;;;;;2.00;100.00;149172.13;13035171;22;20019;-78
2023/12/23 00:52:54;;;;;;;1.40;0.30;;;;;;;1.98;100.00;149167.00;13034089;22;20023;-78
2023/12/23 00:57:55;;;;;;;0.35;0.22;;;;;;;1.91;100.00;149147.78;13035555;22;20029;-78
2023/12/23 01:02:57;;;;;;;0.43;0.40;;;;;;;2.03;100.00;149178.53;13011231;22;20023;-78
2023/12/23 01:07:59;;;;;;;0.40;0.38;;;;;;;2.04;100.00;149181.13;13063340;22;20445;-78
2023/12/23 01:13:01;;;;;;;0.57;0.30;;;;;;;2.21;100.00;149223.41;13034323;22;20026;-78
2023/12/23 01:18:02;;;;;;;1.15;0.32;;;;;;;2.02;100.00;149177.25;13037875;22;20023;-78
2023/12/23 01:23:04;;;;;;;0.55;0.45;;;;;;;2.22;100.00;149227.28;13058807;22;20019;-78
2023/12/23 01:28:08;;;;;;;0.40;0.20;;;;;;;2.34;100.00;149255.47;13042519;22;20027;-78
2023/12/23 01:33:10;;;;;;;0.20;0.20;;;;;;;2.38;100.00;149265.75;13035325;22;20015;-78
2023/12/23 01:38:12;;;;;;;0.93;0.38;;;;;;;2.28;100.00;149241.38;13063248;22;20019;-78
2023/12/23 01:43:13;;;;;;;1.08;0.30;;;;;;;2.28;100.00;149242.66;13062767;22;20017;-78
2023/12/23 01:48:15;;;;;;;1.23;0.25;;;;;;;2.44;100.00;149281.19;13063504;22;20023;-78
2023/12/23 01:53:17;;;;;;;1.30;0.22;;;;;;;2.46;100.00;149287.56;13035259;22;20019;-78
2023/12/23 01:58:22;;;;;;;1.52;0.20;;;;;;;2.59;95.50;149318.34;13034829;22;20334;-78
2023/12/23 02:03:24;;;;;;;1.52;0.28;;;;;;;2.52;96.24;149302.97;13061268;22;20023;-78
2023/12/23 02:08:27;;;;;;;0.98;0.20;;;;;;;2.39;96.79;149269.63;13061532;22;20015;-78
2023/12/23 02:13:35;;;;;;;0.85;0.30;;;;;;;2.48;95.60;149292.72;13060404;22;20525;-78
2023/12/23 02:18:38;;;;;;;1.10;0.40;;;;;;;2.17;96.34;149213.16;13030831;22;20341;-78
2023/12/23 02:23:40;;;;;;;1.38;0.30;;;;;;;2.03;95.45;149179.81;13030354;22;20015;-78
2023/12/23 02:28:43;;;;;;;3.05;0.40;;;;;;;2.01;95.79;149174.69;13030292;22;20031;-78
2023/12/23 02:33:49;;;;;;;1.98;0.50;;;;;;;1.86;96.98;149136.25;13031990;22;20023;-78
2023/12/23 02:38:51;;;;;;;1.87;0.50;;;;;;;2.06;93.92;149184.97;13032098;22;20019;-78
2023/12/23 02:43:53;;;;;;;0.75;0.20;;;;;;;1.95;95.97;149158.06;13060223;22;20011;-78
2023/12/23 02:48:54;;;;;;;0.38;0.20;;;;;;;1.90;96.03;149146.47;13070724;22;20069;-78
2023/12/23 02:53:56;;;;;;;2.28;0.85;;;;;;;1.77;98.06;149114.44;13033853;22;20022;-78
2023/12/23 02:58:58;;;;;;;1.27;0.40;;;;;;;1.61;100.00;149072.13;13073465;22;20019;-78
2023/12/23 03:04:00;;;;;;;1.02;0.40;;;;;;;1.61;100.00;149073.41;13036760;22;20547;-78
2023/12/23 03:09:03;;;;;;;1.35;0.75;;;;;;;1.61;100.00;149073.41;13080918;22;20045;-78
2023/12/23 03:14:05;;;;;;;2.38;1.17;;;;;;;1.74;97.70;149106.75;13065199;22;20015;-78
2023/12/23 03:19:08;;;;;;;1.63;0.45;;;;;;;1.71;95.04;149099.03;13035731;22;20425;-78
2023/12/23 03:24:10;;;;;;;2.17;0.65;;;;;;;1.55;94.84;149056.72;13035905;22;20019;-78
2023/12/23 03:29:12;;;;;;;1.10;0.30;;;;;;;1.72;92.11;149101.59;13063097;22;20089;-78
2023/12/23 03:34:14;;;;;;;2.60;0.35;;;;;;;1.63;92.30;149077.25;13063274;22;20011;-78
2023/12/23 03:39:15;;;;;;;1.48;0.63;;;;;;;1.69;90.72;149092.66;13063197;22;20015;-78
2023/12/23 03:44:17;;;;;;;5.28;1.60;;;;;;;1.83;89.61;149128.53;13045505;22;20035;-79
2023/12/23 03:49:19;;;;;;;1.45;0.43;;;;;;;1.79;90.29;149117.00;13020947;22;20023;-79
2023/12/23 03:54:21;;;;;;;2.28;0.60;;;;;;;1.68;92.12;149091.38;13073741;22;20437;-79
2023/12/23 03:59:22;;;;;;;1.65;0.40;;;;;;;1.88;90.37;149141.34;13045499;22;20072;-79
2023/12/23 04:04:24;;;;;;;5.78;0.80;;;;;;;1.67;92.89;149088.78;13046977;22;20019;-78
2023/12/23 04:09:26;;;;;;;2.25;0.40;;;;;;;1.82;91.62;149126.00;13072109;22;20027;-79
2023/12/23 04:14:28;;;;;;;5.03;0.60;;;;;;;1.94;91.00;149155.44;13043292;22;20372;-79
2023/12/23 04:19:30;;;;;;;1.70;0.55;;;;;;;1.85;91.43;149132.38;13044292;22;20082;-79
2023/12/23 04:24:32;;;;;;;2.25;0.40;;;;;;;1.79;90.81;149118.28;13038508;22;20020;-79
2023/12/23 04:29:33;;;;;;;1.92;0.45;;;;;;;1.81;89.22;149122.13;13068902;22;20031;-78
2023/12/23 04:34:37;;;;;;;2.92;0.40;;;;;;;1.97;85.40;149164.44;13070940;22;20015;-79
2023/12/23 04:39:39;;;;;;;1.67;0.32;;;;;;;1.88;84.90;149141.34;13042333;22;20019;-78
2023/12/23 04:44:41;;;;;;;1.30;0.32;;;;;;;1.81;84.22;149123.38;13086733;22;20110;-78
2023/12/23 04:49:42;;;;;;;5.85;0.38;;;;;;;1.93;84.15;149154.16;13032819;22;20026;-79
2023/12/23 04:54:45;;;;;;;2.38;0.55;;;;;;;1.79;85.86;149117.00;13042701;22;20027;-79
2023/12/23 04:59:46;;;;;;;1.38;0.40;;;;;;;1.88;85.93;149141.34;13070185;22;20282;-80
2023/12/23 05:04:48;;;;;;;2.65;0.40;;;;;;;1.87;87.43;149137.53;13030227;22;20019;-79
2023/12/23 05:09:50;;;;;;;2.60;0.85;;;;;;;1.90;88.17;149146.47;13009338;22;20084;-80
2023/12/23 05:14:52;;;;;;;1.60;0.50;;;;;;;1.92;88.97;149150.34;13028646;22;20015;-78
2023/12/23 05:19:55;;;;;;;3.83;0.60;;;;;;;2.02;88.12;149175.97;13034707;22;20026;-78
2023/12/23 05:24:57;;;;;;;3.70;0.32;;;;;;;1.97;88.17;149164.44;13047928;22;20047;-78
2023/12/23 05:29:59;;;;;;;1.27;0.38;;;;;;;1.89;90.54;149143.91;13055097;22;20025;-79
2023/12/23 05:35:01;;;;;;;1.38;0.43;;;;;;;2.07;89.88;149187.50;13083263;22;20018;-80
2023/12/23 05:40:04;;;;;;;2.40;0.90;;;;;;;2.16;89.15;149210.59;13065535;22;20021;-80
2023/12/23 05:45:07;;;;;;;4.38;0.38;;;;;;;2.29;89.19;149243.94;13073300;22;20034;-79
2023/12/23 05:50:10;;;;;;;2.97;0.50;;;;;;;2.16;91.41;149211.88;13067703;22;20033;-79
2023/12/23 05:55:12;;;;;;;3.05;0.30;;;;;;;2.26;90.47;149237.56;13072546;22;20011;-78
2023/12/23 06:00:14;;;;;;;2.65;0.80;;;;;;;2.21;90.54;149223.41;13073842;22;20022;-78
2023/12/23 06:05:16;;;;;;;0.40;0.40;;;;;;;2.12;93.71;149201.59;13050885;22;20039;-78
2023/12/23 06:10:17;;;;;;;1.95;0.52;;;;;;;1.89;98.50;149143.91;13071409;22;20045;-78
2023/12/23 06:15:19;;;;;;;1.52;0.32;;;;;;;1.69;100.00;149092.66;13067935;22;20031;-78
2023/12/23 06:20:21;;;;;;;2.83;0.50;;;;;;;1.41;100.00;149023.41;13055081;22;20019;-78
2023/12/23 06:25:22;;;;;;;1.48;0.45;;;;;;;1.42;100.00;149026.00;13081284;22;20041;-78
2023/12/23 06:30:24;;;;;;;2.05;0.35;;;;;;;1.34;100.00;149005.47;13080237;22;20027;-78
2023/12/23 06:35:26;;;;;;;1.70;0.30;;;;;;;1.23;100.00;148978.53;13088114;22;20019;-78
2023/12/23 06:40:30;;;;;;;0.95;0.28;;;;;;;1.25;100.00;148983.69;13092507;22;20036;-78
2023/12/23 06:45:32;;;;;;;0.28;0.20;;;;;;;1.24;100.00;148981.16;13090757;22;20413;-80
2023/12/23 06:50:34;;;;;;;1.13;0.82;;;;;;;1.16;100.00;148960.63;13065979;22;20038;-79
2023/12/23 06:55:36;;;;;;;5.55;0.30;;;;;;;1.27;100.00;148988.81;13077219;22;20015;-79
2023/12/23 07:00:37;;;;;;;0.80;0.40;;;;;;;1.22;100.00;148976.00;13092741;22;20022;-79
2023/12/23 07:05:39;;;;;;;0.35;0.35;;;;;;;1.31;100.00;148997.78;13102937;22;20015;-78
2023/12/23 07:10:41;;;;;;;1.05;0.50;;;;;;;1.34;100.00;149005.47;13092199;22;20026;-78
2023/12/23 07:15:43;;;;;;;2.67;0.60;;;;;;;1.27;100.00;148987.53;13086460;22;20004;-79
2023/12/23 07:20:46;;;;;;;1.35;0.60;;;;;;;1.31;100.00;148997.78;13080286;22;20012;-78
2023/12/23 07:25:47;;;;;;;0.82;0.57;;;;;;;1.19;100.00;148968.28;13098983;22;20011;-78
2023/12/23 07:30:49;;;;;;;2.15;0.73;;;;;;;1.17;100.00;148963.19;13068061;22;20024;-78
2023/12/23 07:35:51;;;;;;;0.60;0.50;;;;;;;1.31;100.00;148997.78;13112822;22;20019;-79
2023/12/23 07:40:54;;;;;;;1.42;0.52;;;;;;;1.24;100.00;148979.88;13085514;22;20003;-78
2023/12/23 07:45:55;;;;;;;0.85;0.50;;;;;;;1.22;100.00;148974.72;13084193;22;20015;-77
2023/12/23 07:50:57;;;;;;;1.50;0.60;;;;;;;1.15;100.00;148958.06;13108919;22;20011;-78
2023/12/23 07:55:59;;;;;;;1.25;0.80;;;;;;;1.24;100.00;148981.16;13083169;22;20018;-79
2023/12/23 08:01:01;;;;;;;2.15;0.50;;;;;;;1.27;100.00;148987.53;13110369;22;20422;-79
2023/12/23 08:06:03;;;;;;;0.95;0.50;;;;;;;1.17;100.00;148961.91;13078031;22;20014;-78
2023/12/23 08:11:05;;;;;;;0.82;0.52;;;;;;;1.22;100.00;148974.72;13094883;22;20134;-78
2023/12/23 08:16:07;;;;;;;1.05;0.35;;;;;;;1.15;100.00;148956.75;13080855;22;20014;-79
2023/12/23 08:21:09;;;;;;;2.13;0.75;;;;;;;1.19;100.00;148967.00;13079502;22;20053;-81
2023/12/23 08:26:11;;;;;;;0.70;0.57;;;;;;;1.14;100.00;148954.19;13079771;22;20472;-80
2023/12/23 08:31:13;;;;;;;1.27;0.40;;;;;;;1.26;100.00;148984.97;13090503;22;20346;-79
2023/12/23 08:36:15;;;;;;;0.70;0.55;;;;;;;1.28;100.00;148990.06;13081070;22;20094;-79
2023/12/23 08:41:30;;;;;;;1.15;0.82;;;;;;;1.09;100.00;148942.66;13081849;22;20015;-80
2023/12/23 08:46:32;;;;;;;1.17;0.50;;;;;;;0.99;100.00;148917.06;13077543;22;20294;-78
2023/12/23 08:51:38;;;;;;;0.50;0.40;;;;;;;0.98;100.00;148914.50;13080776;22;20094;-79
2023/12/23 08:56:39;;;;;;;0.35;0.35;;;;;;;1.05;100.00;148931.16;13074778;22;20016;-79
2023/12/23 09:01:43;;;;;;;0.20;0.20;;;;;;;1.09;100.00;148942.66;13084490;22;20383;-78
2023/12/23 09:06:46;;;;;;;0.20;0.20;;;;;;;1.16;100.00;148959.34;13089003;22;20015;-77
2023/12/23 09:11:48;;;;;;;0.52;0.35;;;;;;;1.24;100.00;148981.16;13088102;22;20341;-77
2023/12/23 09:16:50;;;;;;;0.82;0.40;;;;;;;1.19;100.00;148967.00;13072495;22;20027;-79
2023/12/23 09:21:52;;;;;;;1.55;0.80;;;;;;;1.24;100.00;148979.88;13065696;22;20066;-79
2023/12/23 09:26:54;;;;;;;1.33;0.70;;;;;;;1.13;100.00;148951.66;13063307;22;20109;-78
2023/12/23 09:31:56;;;;;;;1.63;0.63;;;;;;;1.21;100.00;148972.16;13070808;22;20012;-78
2023/12/23 09:36:57;;;;;;;1.33;0.70;;;;;;;1.41;100.00;149022.13;13072624;22;20019;-79
2023/12/23 09:41:59;;;;;;;1.23;0.70;;;;;;;1.27;100.00;148987.53;13041484;22;20037;-79
2023/12/23 09:47:01;;;;;;;0.95;0.57;;;;;;;1.22;100.00;148974.72;13069665;22;20019;-77
2023/12/23 09:52:03;;;;;;;0.98;0.73;;;;;;;1.22;100.00;148976.00;13063812;22;20012;-79
2023/12/23 09:57:07;;;;;;;0.98;0.70;;;;;;;1.27;100.00;148987.53;13059948;22;20025;-79
2023/12/23 10:02:09;;;;;;;0.65;0.45;;;;;;;1.44;100.00;149031.09;13058573;22;20015;-78
2023/12/23 10:07:11;;;;;;;0.63;0.50;;;;;;;1.45;100.00;149032.38;13084330;22;20090;-79
2023/12/23 10:12:12;;;;;;;0.55;0.40;;;;;;;1.45;100.00;149033.66;13068835;22;20011;-78
2023/12/23 10:17:14;;;;;;;0.30;0.30;;;;;;;1.49;100.00;149043.91;13041575;22;20107;-78
2023/12/23 10:22:16;;;;;;;0.30;0.30;;;;;;;1.50;100.00;149046.47;13063368;22;20457;-78
2023/12/23 10:27:18;;;;;;;0.30;0.28;;;;;;;1.55;100.00;149056.72;13064060;22;20069;-78
2023/12/23 10:32:27;;;;;;;0.77;0.68;;;;;;;1.68;100.00;149090.06;13065219;22;20027;-78
2023/12/23 10:37:32;;;;;;;1.35;0.45;;;;;;;1.83;100.00;149127.28;13040810;22;20022;-78
2023/12/23 10:42:35;;;;;;;0.50;0.40;;;;;;;1.85;100.00;149133.66;13066734;22;20105;-78
2023/12/23 10:47:37;;;;;;;0.38;0.20;;;;;;;1.95;100.00;149158.06;13063784;22;20077;-78
2023/12/23 10:52:41;;;;;;;0.28;0.20;;;;;;;1.83;100.00;149128.53;13074710;22;20015;-78
2023/12/23 10:57:45;;;;;;;0.75;0.30;;;;;;;2.05;100.00;149183.69;13076313;22;20022;-79
2023/12/23 11:02:49;;;;;;;1.27;0.30;;;;;;;2.13;100.00;149204.22;13066865;22;20015;-79
2023/12/23 11:07:53;;;;;;;0.63;0.63;;;;;;;1.95;100.00;149158.06;13059214;22;20395;-78
2023/12/23 11:18:40;;;;;;;0.95;0.38;;;;;;;1.85;100.00;149132.38;13043434;22;20023;-79
2023/12/23 11:23:41;;;;;;;4.47;0.47;;;;;;;1.72;100.00;149100.31;13074339;22;20015;-79
2023/12/23 11:28:48;;;;;;;0.50;0.25;;;;;;;1.69;100.00;149093.94;13074804;22;20026;-79
2023/12/23 11:33:51;;;;;;;0.13;0.13;;;;;;;1.61;100.00;149072.13;13093096;22;20003;-79
2023/12/23 11:38:53;;;;;;;0.55;0.20;;;;;;;1.57;100.00;149061.88;13070063;22;20019;-78
2023/12/23 11:43:56;;;;;;;0.32;0.30;;;;;;;1.63;100.00;149077.25;13067393;22;20015;-78
2023/12/23 11:49:00;;;;;;;0.30;0.30;;;;;;;1.58;100.00;149065.72;13061377;22;20030;-79
2023/12/23 11:54:02;;;;;;;0.30;0.20;;;;;;;1.50;100.00;149046.47;13069736;22;20015;-78
2023/12/23 11:59:05;;;;;;;0.20;0.20;;;;;;;1.48;100.00;149040.09;13033210;22;20019;-77
2023/12/23 12:04:08;;;;;;;0.20;0.20;;;;;;;1.38;100.00;149015.75;13056571;22;20019;-77
2023/12/23 12:09:10;;;;;;;0.60;0.50;;;;;;;1.26;100.00;148986.25;13057113;22;20393;-77
2023/12/23 12:14:12;;;;;;;0.70;0.70;;;;;;;1.11;100.00;148946.56;13056300;22;20476;-77
2023/12/23 12:19:13;;;;;;;0.77;0.50;;;;;;;1.27;100.00;148987.53;13058237;22;20019;-77
2023/12/23 12:24:17;;;;;;;0.52;0.52;;;;;;;1.21;100.00;148973.44;13058257;22;20021;-77
2023/12/23 12:29:20;;;;;;;0.30;0.30;;;;;;;1.27;100.00;148987.53;13056287;22;20023;-77
2023/12/23 12:34:23;;;;;;;0.45;0.35;;;;;;;1.01;100.00;148923.44;13055380;22;20434;-77
2023/12/23 12:39:25;;;;;;;0.20;0.20;;;;;;;1.04;100.00;148929.88;13056589;22;20045;-79
2023/12/23 12:44:27;;;;;;;0.55;0.55;;;;;;;1.16;100.00;148959.34;13032252;22;20045;-79
2023/12/23 12:49:29;;;;;;;1.10;0.70;;;;;;;1.22;100.00;148974.72;13059316;22;20068;-78
2023/12/23 12:54:31;;;;;;;0.55;0.45;;;;;;;0.96;100.00;148910.63;13060735;22;20021;-78
2023/12/23 12:59:33;;;;;;;0.35;0.35;;;;;;;1.22;100.00;148976.00;13057514;22;20073;-78
2023/12/23 13:04:34;;;;;;;0.63;0.30;;;;;;;1.30;100.00;148993.94;13026307;22;20022;-77
2023/12/23 13:09:40;;;;;;;0.30;0.30;;;;;;;1.32;100.00;148999.06;13058317;22;20037;-78
2023/12/23 13:14:42;;;;;;;0.40;0.40;;;;;;;1.19;100.00;148967.00;13057741;22;20011;-77
2023/12/23 13:19:44;;;;;;;0.15;0.15;;;;;;;1.27;100.00;148987.53;13057436;22;20046;-77
2023/12/23 13:24:46;;;;;;;0.63;0.50;;;;;;;1.31;100.00;148996.50;13058509;22;20019;-76
2023/12/23 13:29:47;;;;;;;1.00;0.90;;;;;;;1.38;100.00;149015.75;13063036;22;20023;-79
2023/12/23 13:34:49;;;;;;;0.75;0.75;;;;;;;1.41;100.00;149023.41;13065084;22;20345;-79
2023/12/23 13:39:51;;;;;;;0.25;0.25;;;;;;;1.27;100.00;148987.53;13075145;22;20015;-79
2023/12/23 13:44:53;;;;;;;0.20;0.20;;;;;;;1.23;100.00;148978.53;13075031;22;20015;-79
2023/12/23 13:49:54;;;;;;;0.40;0.40;;;;;;;1.34;100.00;149004.22;13074968;22;20019;-80
2023/12/23 13:54:56;;;;;;;0.50;0.30;;;;;;;1.38;100.00;149015.75;13070475;22;20011;-78
2023/12/23 13:59:58;;;;;;;0.30;0.30;;;;;;;1.38;100.00;149014.47;13043712;22;20087;-80
2023/12/23 14:05:00;;;;;;;0.20;0.20;;;;;;;1.35;100.00;149008.03;13067187;22;20015;-78
2023/12/23 14:10:02;;;;;;;0.30;0.30;;;;;;;1.36;100.00;149010.59;13060647;22;20165;-79
2023/12/23 14:15:04;;;;;;;1.30;0.30;;;;;;;1.49;100.00;149042.63;13079150;22;20345;-80
2023/12/23 14:20:06;;;;;;;0.40;0.30;;;;;;;1.48;100.00;149041.34;13072967;22;20441;-79
2023/12/23 14:25:08;;;;;;;0.80;0.77;;;;;;;1.55;100.00;149058.03;13044704;22;20019;-79
2023/12/23 14:30:11;;;;;;;1.05;0.80;;;;;;;1.52;100.00;149050.34;13086682;22;20003;-78
2023/12/23 14:35:12;;;;;;;1.63;1.50;;;;;;;1.42;100.00;149026.00;13091963;22;20025;-80
2023/12/23 14:40:14;;;;;;;30.42;12.23;;;;;;;1.42;100.00;149026.00;13045895;22;20019;-78
2023/12/23 14:45:17;;;;;;;4.15;2.47;;;;;;;1.34;100.00;149004.22;13066082;22;20016;-80
2023/12/23 14:50:20;;;;;;;6.93;3.55;;;;;;;1.33;100.00;149001.59;13067316;22;20039;-80
2023/12/23 14:55:22;;;;;;;8.48;5.82;;;;;;;1.34;100.00;149004.22;13067424;22;20022;-79
2023/12/23 15:00:24;;;;;;;4.63;3.00;;;;;;;1.27;100.00;148988.81;13081581;22;20515;-79
2023/12/23 15:05:26;;;;;;;6.97;3.92;;;;;;;1.42;100.00;149024.72;13080036;22;20030;-79
2023/12/23 15:10:27;;;;;;;1.35;1.25;;;;;;;1.36;100.00;149009.31;13079074;22;20023;-79
2023/12/23 15:15:30;;;;;;;6.20;4.32;;;;;;;1.24;100.00;148979.88;13079495;22;20019;-79
2023/12/23 15:20:31;;;;;;;16.17;9.25;;;;;;;1.36;100.00;149010.59;13046623;22;20075;-78
2023/12/23 15:25:33;;;;;;;7.82;5.30;;;;;;;1.37;100.00;149013.13;13044504;22;20012;-78
2023/12/23 15:30:35;;;;;;;1.13;1.02;;;;;;;1.20;100.00;148969.63;13064481;22;20042;-78
2023/12/23 15:35:37;;;;;;;1.98;1.20;;;;;;;1.25;100.00;148983.69;13063849;22;20089;-78
2023/12/23 15:40:39;;;;;;;2.33;2.13;;;;;;;1.22;100.00;148974.72;13044210;22;20465;-79
2023/12/23 15:45:41;;;;;;;0.80;0.75;;;;;;;1.21;100.00;148972.16;13068203;22;20082;-78
2023/12/23 15:50:42;;;;;;;0.70;0.55;;;;;;;1.21;100.00;148973.44;13060724;22;20019;-77
2023/12/23 15:55:44;;;;;;;0.60;0.50;;;;;;;1.27;100.00;148988.81;13034148;22;20087;-77
2023/12/23 16:00:46;;;;;;;0.50;0.38;;;;;;;1.41;100.00;149023.41;13078882;22;20015;-79
2023/12/23 16:05:47;;;;;;;0.40;0.40;;;;;;;1.41;100.00;149023.41;13064361;22;20390;-79
2023/12/23 16:10:49;;;;;;;0.40;0.40;;;;;;;1.49;100.00;149043.91;13060914;22;20019;-78
2023/12/23 16:15:51;;;;;;;0.65;0.45;;;;;;;1.48;100.00;149041.34;13071435;22;20512;-80
2023/12/23 16:20:53;;;;;;;0.47;0.43;;;;;;;1.39;100.00;149018.28;13072741;22;20022;-78
2023/12/23 16:25:55;;;;;;;0.40;0.40;;;;;;;1.59;100.00;149066.97;13076580;22;20011;-79
2023/12/23 16:30:57;;;;;;;0.45;0.45;;;;;;;1.48;100.00;149041.34;13055999;22;20019;-79
2023/12/23 16:35:59;;;;;;;0.50;0.50;;;;;;;1.49;100.00;149042.63;13072035;22;20015;-79
2023/12/23 16:41:00;;;;;;;0.80;0.60;;;;;;;1.43;100.00;149028.56;13048996;22;20039;-78
2023/12/23 16:46:02;;;;;;;0.50;0.50;;;;;;;1.44;100.00;149031.09;13073202;22;20094;-79
2023/12/23 16:51:04;;;;;;;0.55;0.47;;;;;;;1.45;100.00;149033.66;13066631;22;20011;-80
2023/12/23 16:56:06;;;;;;;1.17;0.85;;;;;;;1.41;100.00;149022.13;13059494;22;20021;-78
2023/12/23 17:01:08;;;;;;;1.92;1.13;;;;;;;1.58;100.00;149064.44;13069150;22;20027;-78
2023/12/23 17:06:10;;;;;;;1.40;0.90;;;;;;;1.42;100.00;149026.00;13067153;22;20011;-80
2023/12/23 17:11:12;;;;;;;1.58;0.75;;;;;;;1.47;100.00;149038.81;13061363;22;20057;-79
2023/12/23 17:16:14;;;;;;;1.42;0.65;;;;;;;1.32;100.00;149000.34;13064777;22;20011;-79
2023/12/23 17:21:16;;;;;;;0.85;0.80;;;;;;;1.42;100.00;149024.72;13069608;22;20100;-79
2023/12/23 17:26:17;;;;;;;1.00;0.80;;;;;;;1.46;100.00;149036.25;13085720;22;20011;-81
2023/12/23 17:31:19;;;;;;;0.70;0.60;;;;;;;1.46;100.00;149034.94;13064800;22;20321;-77
2023/12/23 17:36:22;;;;;;;0.75;0.75;;;;;;;1.50;100.00;149046.47;13054558;22;20015;-77
2023/12/23 17:41:24;;;;;;;0.68;0.60;;;;;;;1.43;100.00;149028.56;13056340;22;20042;-77
2023/12/23 17:46:27;;;;;;;0.65;0.65;;;;;;;1.52;100.00;149050.34;13054191;22;20011;-77
2023/12/23 17:51:28;;;;;;;1.20;0.70;;;;;;;1.35;100.00;149008.03;13058152;22;20041;-78
2023/12/23 17:56:30;;;;;;;0.55;0.55;;;;;;;1.47;100.00;149038.81;13054661;22;20346;-78
2023/12/23 18:01:32;;;;;;;1.17;0.65;;;;;;;1.45;100.00;149032.38;13055472;22;20045;-78
2023/12/23 18:06:34;;;;;;;1.10;0.60;;;;;;;1.41;100.00;149023.41;13053044;22;20484;-78
2023/12/23 18:11:35;;;;;;;0.90;0.68;;;;;;;1.59;100.00;149066.97;13054187;22;20453;-77
2023/12/23 18:16:37;;;;;;;1.10;0.90;;;;;;;1.64;100.00;149079.78;13052595;22;20019;-76
2023/12/23 18:21:39;;;;;;;1.42;0.98;;;;;;;1.51;100.00;149047.78;13052856;22;20063;-76
2023/12/23 18:26:42;;;;;;;1.25;0.80;;;;;;;1.46;100.00;149036.25;13053953;22;20333;-77
2023/12/23 18:31:44;;;;;;;0.73;0.60;;;;;;;1.57;100.00;149063.16;13055461;22;20019;-77
2023/12/23 18:36:45;;;;;;;1.00;0.63;;;;;;;1.60;100.00;149070.84;13057119;22;20015;-77
2023/12/23 18:41:47;;;;;;;0.60;0.60;;;;;;;1.52;100.00;149050.34;13057832;22;20050;-76
2023/12/23 18:46:49;;;;;;;1.02;0.68;;;;;;;1.65;100.00;149082.41;13060511;22;20073;-78
2023/12/23 18:51:51;;;;;;;1.45;0.90;;;;;;;1.61;100.00;149073.41;13063826;22;20015;-76
2023/12/23 18:56:53;;;;;;;1.00;0.90;;;;;;;1.68;100.00;149091.38;13066239;22;20046;-78
2023/12/23 19:01:54;;;;;;;0.90;0.70;;;;;;;1.59;100.00;149066.97;13060767;22;20021;-77
2023/12/23 19:06:56;;;;;;;0.95;0.68;;;;;;;1.67;100.00;149088.78;13058303;22;20023;-77
2023/12/23 19:11:58;;;;;;;1.17;0.82;;;;;;;1.83;100.00;149127.28;13066164;22;20125;-77
2023/12/23 19:17:00;;;;;;;0.65;0.65;;;;;;;1.88;100.00;149141.34;13058841;22;20087;-78
2023/12/23 19:22:01;;;;;;;1.10;1.00;;;;;;;1.98;100.00;149165.72;13057969;22;20047;-78
2023/12/23 19:27:03;;;;;;;0.65;0.65;;;;;;;1.96;100.00;149160.59;13057950;22;20019;-77
2023/12/23 19:32:05;;;;;;;0.85;0.70;;;;;;;2.06;100.00;149186.22;13059217;22;20090;-77
2023/12/23 19:37:07;;;;;;;0.52;0.52;;;;;;;2.19;100.00;149218.31;13060717;22;20039;-77
2023/12/23 19:42:09;;;;;;;0.60;0.60;;;;;;;2.23;100.00;149228.56;13060133;22;20047;-78
2023/12/23 19:47:10;;;;;;;0.80;0.60;;;;;;;2.14;100.00;149205.50;13063775;22;20018;-77
2023/12/23 19:52:12;;;;;;;0.50;0.50;;;;;;;2.26;100.00;149237.56;13063937;22;20042;-78
2023/12/23 19:57:15;;;;;;;0.40;0.40;;;;;;;2.32;100.00;149250.38;13070547;22;20038;-78
2023/12/23 20:02:16;;;;;;;0.47;0.47;;;;;;;2.44;100.00;149281.19;13064818;22;20354;-77
2023/12/23 20:07:18;;;;;;;0.43;0.40;;;;;;;2.49;100.00;149294.00;13037442;22;20200;-80
2023/12/23 20:12:20;;;;;;;0.43;0.30;;;;;;;2.50;100.00;149296.53;13064090;22;20023;-78
2023/12/23 20:17:22;;;;;;;0.40;0.32;;;;;;;2.46;100.00;149287.56;13068051;22;20012;-77
2023/12/23 20:22:23;;;;;;;0.50;0.32;;;;;;;2.55;100.00;149309.38;13064000;22;20019;-77
2023/12/23 20:27:25;;;;;;;0.28;0.28;;;;;;;2.67;100.00;149338.91;13066139;22;20007;-77
2023/12/23 20:32:27;;;;;;;0.20;0.20;;;;;;;2.77;100.00;149364.53;13079948;22;20007;-79
2023/12/23 20:37:29;;;;;;;0.30;0.30;;;;;;;2.88;100.00;149392.78;13083554;22;20014;-78
2023/12/23 20:42:31;;;;;;;0.30;0.30;;;;;;;2.82;100.00;149376.09;13111430;22;19999;-79
2023/12/23 20:47:33;;;;;;;0.52;0.40;;;;;;;2.99;100.00;149419.72;13104483;22;20039;-78
2023/12/23 20:52:35;;;;;;;0.40;0.40;;;;;;;2.99;100.00;149419.72;13072950;22;20095;-77
2023/12/23 20:57:37;;;;;;;0.52;0.32;;;;;;;3.11;100.00;149450.53;13073219;22;20035;-79
2023/12/23 21:02:39;;;;;;;0.30;0.30;;;;;;;3.12;100.00;149451.81;13043839;22;20023;-78
2023/12/23 21:07:41;;;;;;;0.57;0.40;;;;;;;3.00;100.00;149423.56;13063518;22;20022;-79
2023/12/23 21:12:43;;;;;;;0.52;0.40;;;;;;;3.11;100.00;149449.25;13069146;22;20046;-78
2023/12/23 21:17:45;;;;;;;1.55;0.68;;;;;;;3.15;100.00;149460.81;13068115;22;20457;-80
2023/12/23 21:22:47;;;;;;;0.75;0.50;;;;;;;2.93;100.00;149405.63;13070499;22;20022;-79
2023/12/23 21:27:49;;;;;;;0.60;0.60;;;;;;;3.13;100.00;149454.38;13064340;22;20015;-78
2023/12/23 21:32:50;;;;;;;0.93;0.75;;;;;;;3.00;100.00;149423.56;13063598;22;20460;-77
2023/12/23 21:37:53;;;;;;;0.68;0.68;;;;;;;3.07;100.00;149440.28;13067097;22;20015;-79
2023/12/23 21:42:55;;;;;;;1.20;0.70;;;;;;;3.05;100.00;149435.09;13070599;22;20040;-78
2023/12/23 21:47:56;;;;;;;1.23;0.93;;;;;;;3.08;100.00;149442.81;13069341;22;20018;-79
2023/12/23 21:52:59;;;;;;;1.17;1.00;;;;;;;2.91;100.00;149400.47;13063781;22;20015;-78
2023/12/23 21:58:01;;;;;;;1.15;1.05;;;;;;;2.91;100.00;149400.47;13028487;22;20026;-79
2023/12/23 22:03:03;;;;;;;1.80;1.42;;;;;;;2.85;100.00;149385.09;13063316;22;20015;-78
2023/12/23 22:08:05;;;;;;;1.92;1.65;;;;;;;2.77;100.00;149365.81;13045001;22;20027;-79
2023/12/23 22:13:06;;;;;;;2.15;1.85;;;;;;;2.65;100.00;149335.00;13073835;22;20027;-79
2023/12/23 22:18:08;;;;;;;2.45;2.25;;;;;;;2.79;100.00;149369.72;13070315;22;20019;-79
2023/12/23 22:23:12;;;;;;;2.22;2.03;;;;;;;2.88;100.00;149392.78;13070874;22;20045;-79
2023/12/23 22:28:14;;;;;;;2.65;2.15;;;;;;;3.02;100.00;149428.72;13038699;22;20019;-79
2023/12/23 22:33:16;;;;;;;2.90;2.13;;;;;;;2.91;100.00;149400.47;13061084;22;20038;-79
2023/12/23 22:38:18;;;;;;;4.75;1.80;;;;;;;2.64;100.00;149331.19;13043450;22;20030;-79
2023/12/23 22:43:20;;;;;;;3.03;2.53;;;;;;;3.02;100.00;149427.44;13066513;22;20024;-78
2023/12/23 22:48:22;;;;;;;2.03;1.90;;;;;;;2.97;100.00;149415.91;13037883;22;20020;-80
2023/12/23 22:53:24;;;;;;;2.78;2.47;;;;;;;2.73;100.00;149354.28;13067235;22;20453;-78
2023/12/23 22:58:26;;;;;;;2.88;2.58;;;;;;;2.80;100.00;149370.97;13041633;22;20020;-78
2023/12/23 23:03:27;;;;;;;2.63;2.42;;;;;;;2.66;100.00;149337.63;13071067;22;20026;-79
2023/12/23 23:08:29;;;;;;;1.88;1.77;;;;;;;3.02;100.00;149428.72;13031810;22;20018;-79
2023/12/23 23:13:31;;;;;;;2.65;2.45;;;;;;;2.99;100.00;149421.00;13073929;22;20433;-79
2023/12/23 23:18:33;;;;;;;3.00;2.53;;;;;;;2.82;100.00;149377.38;13059343;22;20094;-78